Angelholm, Sweden

2:02 AM CEST on October 22, 2014 (GMT +0200)
ANGELHOLM (SWE- | Change Station
CLOSE
Current Station
Airport
Location: ANGELHOLM (SWE-,
Elevation: 66 ft
Nearby Weather Stations

Elev 66 ft 56.30 °N, 12.85 °E | Updated 12 minutes ago

Overcast
Overcast
52 °F
Feels Like 52 °F
N
9
Wind Variable Wind from East

Today
High -- | Low -- °F
--% Chance of Precip.
Yesterday
High -- | Low -- °F
Precip. -- in
7:54 AM 5:50 PM
Waning Crescent, 4% visible
Pressure 29.44 in
Visibility 6.2 miles
Clouds Scattered Clouds 7000 ft
Overcast 8400 ft
Dew Point 50 °F
Humidity 94%
Rainfall 0.00 in
Snow Depth Not available.
UV 0 out of 12
Pollen Not available.
Air Quality Not available.
Flu Activity Not available.
METAR ESTA 212350Z AUTO 10008KT 9999 SCT070/// OVC084/// 11/10 Q0997

More Conditions Fewer Conditions

Pressure 29.44 in
Visibility 6.2 miles
Clouds Scattered Clouds 7000 ft
Overcast 8400 ft
Dew Point 50 °F
Humidity 94%
Rainfall 0.00 in
Snow Depth Not available.
UV 0 out of 12
Pollen Not available.
Air Quality Not available.
Flu Activity Not available.
METAR ESTA 212350Z AUTO 10008KT 9999 SCT070/// OVC084/// 11/10 Q0997

More Conditions Fewer Conditions

10-Day Weather Forecast

Almanac

Astronomy

Oct. 22, 2014 Rise Set
Actual Time 7:54 AM CEST 5:50 PM CEST
Civil Twilight 7:16 AM CEST 6:29 PM CEST
Nautical Twilight 6:32 AM CEST 7:12 PM CEST
Astronomical Twilight 5:49 AM CEST 7:55 PM CEST
Moon 6:03 AM CEST 5:19 PM CEST
Length of Visible Light 11h 12m
Length of Day
9h 55m
Tomorrow will be 4m 32s shorter.
Waning Crescent, 4% of the Moon is Illuminated
Oct 21
Waning Crescent
Oct 23
New
Oct 30
First Quarter
Nov 6
Full
Nov 14
Last Quarter

Yesterday's Extremes

Country Highs Country Lows

Community

WunderPhotos

Upload Photos

1,763,824 photos uploaded!

Nearby

Snow Depth

Not available.

Earthquake Activity

City Distance Mag. Time & Date
No recent earthquake activity has been reported nearby.
Minimum magnitude displayed is 2.5.

Coastal Water Temperatures

Place Temperature
No Stations Reporting

Nearby Weather Stations